Time;durP1;ratioP1;P1;durP2;ratioP2;P2;SDS_P1;SDS_P2;PMS_P1;PMS_P2;Temp;Humidity;BMP_temperature;BMP_pressure;BME280_temperature;BME280_humidity;BME280_pressure;Samples;Min_cycle;Max_cycle;Signal;HPM_P1;HPM_P2
2022/05/22 00:00:22;;;;;;;2.25;1.23;;;11.70;99.90;;;;;;4950221;29;20020;-71
2022/05/22 00:02:48;;;;;;;9.05;1.95;;;11.70;99.90;;;;;;4950436;29;20027;-73
2022/05/22 00:05:17;;;;;;;2.97;1.80;;;11.70;99.90;;;;;;4949976;29;20066;-70
2022/05/22 00:07:44;;;;;;;5.35;1.98;;;11.70;99.90;;;;;;4949007;29;20032;-71
2022/05/22 00:10:10;;;;;;;7.57;1.52;;;11.60;99.90;;;;;;4950197;29;20112;-70
2022/05/22 00:12:36;;;;;;;4.10;1.77;;;11.60;99.90;;;;;;4949932;29;20038;-70
2022/05/22 00:15:02;;;;;;;3.15;1.25;;;11.60;99.90;;;;;;4950258;29;20055;-70
2022/05/22 00:17:28;;;;;;;7.63;1.95;;;11.60;99.90;;;;;;4932867;29;20066;-72
2022/05/22 00:19:54;;;;;;;3.35;1.27;;;11.60;99.90;;;;;;4949766;29;20020;-72
2022/05/22 00:22:19;;;;;;;7.90;2.47;;;11.60;99.90;;;;;;4950138;29;20024;-71
2022/05/22 00:24:45;;;;;;;5.53;1.75;;;11.60;99.90;;;;;;4950218;29;20038;-70
2022/05/22 00:27:18;;;;;;;6.45;1.83;;;11.60;99.90;;;;;;4949761;29;20028;-71
2022/05/22 00:30:24;;;;;;;2.95;1.42;;;11.60;99.90;;;;;;5082681;28;20882;-70
2022/05/22 00:32:51;;;;;;;2.45;1.38;;;11.60;99.90;;;;;;5081927;28;20081;-70
2022/05/22 00:35:17;;;;;;;7.28;1.95;;;11.50;99.90;;;;;;5081233;28;20029;-69
2022/05/22 00:37:42;;;;;;;1.42;1.13;;;11.40;99.90;;;;;;5082428;28;20032;-69
2022/05/22 00:40:08;;;;;;;10.48;1.83;;;11.40;99.90;;;;;;5082077;28;20033;-69
2022/05/22 00:42:34;;;;;;;1.55;0.93;;;11.40;99.90;;;;;;5082289;28;20029;-70
2022/05/22 00:44:59;;;;;;;2.05;1.30;;;11.40;99.90;;;;;;5082255;28;20131;-70
2022/05/22 00:47:25;;;;;;;3.45;1.67;;;11.30;99.90;;;;;;5081759;28;20050;-69
2022/05/22 00:49:53;;;;;;;5.28;1.95;;;11.30;99.90;;;;;;5082066;28;20067;-69
2022/05/22 00:52:29;;;;;;;9.77;2.30;;;11.30;99.90;;;;;;5082047;28;20108;-70
2022/05/22 00:55:05;;;;;;;2.25;1.65;;;11.30;99.90;;;;;;5081993;28;20035;-69
2022/05/22 00:57:38;;;;;;;5.50;1.35;;;11.20;99.90;;;;;;5082215;28;20089;-69
2022/05/22 01:00:12;;;;;;;4.82;0.77;;;11.20;99.90;;;;;;5080287;28;20035;-69
2022/05/22 01:05:28;;;;;;;;;;;11.20;99.90;;;;;;5082455;28;20032;-71
2022/05/22 01:07:57;;;;;;;2.92;1.65;;;11.20;99.90;;;;;;5081807;28;19912;-69
2022/05/22 01:10:51;;;;;;;6.32;1.83;;;11.20;99.90;;;;;;5081909;28;20028;-70
2022/05/22 01:13:21;;;;;;;9.70;2.08;;;11.20;99.90;;;;;;5080209;28;20112;-69
2022/05/22 01:15:49;;;;;;;5.43;1.77;;;11.10;99.90;;;;;;5081931;28;20033;-69
2022/05/22 01:18:15;;;;;;;4.07;1.55;;;11.10;99.90;;;;;;5081706;28;20024;-69
2022/05/22 01:20:50;;;;;;;6.47;1.70;;;11.10;99.90;;;;;;5080948;28;20071;-68
2022/05/22 01:23:16;;;;;;;;;;;11.00;99.90;;;;;;5082210;28;20057;-69
2022/05/22 01:25:42;;;;;;;4.60;2.30;;;11.00;99.90;;;;;;5081338;28;19908;-69
2022/05/22 01:28:10;;;;;;;14.10;2.00;;;11.00;99.90;;;;;;5080686;28;20039;-69
2022/05/22 01:30:35;;;;;;;5.70;2.15;;;11.00;99.90;;;;;;5081410;28;20023;-70
2022/05/22 01:33:02;;;;;;;7.93;2.38;;;11.00;99.90;;;;;;5079541;28;20119;-70
2022/05/22 01:35:31;;;;;;;6.55;1.73;;;10.90;99.90;;;;;;5080755;28;20051;-70
2022/05/22 01:37:57;;;;;;;8.65;1.65;;;10.90;99.90;;;;;;5081090;28;20032;-69
2022/05/22 01:40:23;;;;;;;8.75;1.77;;;10.90;99.90;;;;;;5075833;28;20036;-70
2022/05/22 01:42:49;;;;;;;5.15;2.08;;;10.80;99.90;;;;;;5067679;28;20025;-70
2022/05/22 01:45:23;;;;;;;6.07;2.13;;;10.80;99.90;;;;;;5067901;28;20029;-69
2022/05/22 01:47:49;;;;;;;2.78;1.52;;;10.80;99.90;;;;;;5067452;28;20496;-71
2022/05/22 01:50:15;;;;;;;5.97;2.00;;;10.70;99.90;;;;;;5067670;28;20052;-69
2022/05/22 01:52:41;;;;;;;2.55;1.65;;;10.70;99.90;;;;;;5067566;28;20021;-69
2022/05/22 01:55:08;;;;;;;6.43;1.63;;;10.70;99.90;;;;;;5067333;28;20029;-70
2022/05/22 01:57:34;;;;;;;7.63;2.13;;;10.60;99.90;;;;;;5066205;28;20064;-70
2022/05/22 02:00:00;;;;;;;6.93;2.53;;;10.60;99.90;;;;;;5067530;28;20078;-70
2022/05/22 02:02:26;;;;;;;5.95;1.73;;;10.70;99.90;;;;;;5067216;28;20343;-70
2022/05/22 02:04:52;;;;;;;12.38;2.22;;;10.60;99.90;;;;;;5067364;28;20028;-71
2022/05/22 02:10:03;;;;;;;;;;;10.60;99.90;;;;;;5067425;28;20397;-70
2022/05/22 02:12:29;;;;;;;9.38;2.20;;;10.60;99.90;;;;;;5067324;28;19982;-70
2022/05/22 02:14:55;;;;;;;12.68;2.15;;;10.60;99.90;;;;;;5067039;28;20025;-70
2022/05/22 02:17:21;;;;;;;9.05;2.05;;;10.60;99.90;;;;;;5066702;28;20040;-71
2022/05/22 02:19:46;;;;;;;6.13;2.40;;;10.60;99.90;;;;;;5067264;28;20147;-69
2022/05/22 02:22:12;;;;;;;7.50;2.13;;;10.60;99.90;;;;;;5066949;28;20456;-70
2022/05/22 02:24:37;;;;;;;10.20;2.03;;;10.60;99.90;;;;;;5066767;28;20059;-70
2022/05/22 02:27:06;;;;;;;5.25;2.15;;;10.60;99.90;;;;;;5065670;28;20095;-69
2022/05/22 02:29:32;;;;;;;15.73;2.50;;;10.60;99.90;;;;;;5066597;28;20112;-70
2022/05/22 02:31:57;;;;;;;4.70;2.13;;;10.60;99.90;;;;;;5066441;28;20037;-71
2022/05/22 02:34:23;;;;;;;5.60;1.95;;;10.60;99.90;;;;;;5066891;28;20489;-71
2022/05/22 02:36:49;;;;;;;6.03;2.55;;;10.60;99.90;;;;;;5066941;28;20021;-71
2022/05/22 02:39:19;;;;;;;3.63;1.75;;;10.60;99.90;;;;;;5066614;28;20492;-71
2022/05/22 02:41:45;;;;;;;8.18;2.80;;;10.50;99.90;;;;;;5066926;28;20027;-72
2022/05/22 02:44:11;;;;;;;9.43;3.03;;;10.50;99.90;;;;;;5066423;28;20421;-70
2022/05/22 02:46:36;;;;;;;6.70;2.83;;;10.40;99.90;;;;;;5066506;28;20029;-72
2022/05/22 02:49:02;;;;;;;8.75;2.42;;;10.40;99.90;;;;;;5066394;28;20130;-71
2022/05/22 02:51:28;;;;;;;7.32;2.58;;;10.40;99.90;;;;;;5064362;28;20374;-70
2022/05/22 02:53:54;;;;;;;3.40;1.88;;;10.30;99.90;;;;;;5066105;28;20036;-70
2022/05/22 02:56:23;;;;;;;3.75;1.65;;;10.30;99.90;;;;;;5066579;28;20029;-70
2022/05/22 02:58:48;;;;;;;3.92;1.85;;;10.30;99.90;;;;;;5066166;28;20465;-71
2022/05/22 03:01:14;;;;;;;6.50;2.50;;;10.30;99.90;;;;;;5066366;28;20044;-70
2022/05/22 03:03:40;;;;;;;5.50;2.40;;;10.30;99.90;;;;;;5066253;28;20037;-69
2022/05/22 03:08:50;;;;;;;6.68;2.65;;;10.20;99.90;;;;;;5066048;28;20094;-70
2022/05/22 03:11:16;;;;;;;8.45;3.00;;;10.20;99.90;;;;;;5066284;28;20029;-69
2022/05/22 03:13:41;;;;;;;10.50;2.88;;;10.20;99.90;;;;;;5065717;28;20033;-69
2022/05/22 03:16:07;;;;;;;11.52;2.30;;;10.10;99.90;;;;;;5066112;28;20025;-69
2022/05/22 03:18:33;;;;;;;7.47;2.67;;;10.10;99.90;;;;;;5065907;28;20037;-69
2022/05/22 03:20:58;;;;;;;4.70;1.98;;;10.10;99.90;;;;;;5065468;28;20032;-70
2022/05/22 03:23:24;;;;;;;3.72;1.95;;;10.20;99.90;;;;;;5065914;28;20025;-71
2022/05/22 03:25:50;;;;;;;4.90;2.00;;;10.20;99.90;;;;;;5065901;28;20041;-69
2022/05/22 03:28:17;;;;;;;3.65;2.03;;;10.20;99.90;;;;;;5065305;28;20037;-69
2022/05/22 03:30:43;;;;;;;3.85;1.95;;;10.20;99.90;;;;;;5066105;28;20381;-69
2022/05/22 03:33:09;;;;;;;3.40;2.03;;;10.20;99.90;;;;;;5065498;28;20037;-69
2022/05/22 03:35:35;;;;;;;4.05;2.30;;;10.00;99.90;;;;;;5065252;28;20021;-69
2022/05/22 03:38:05;;;;;;;7.00;2.83;;;10.10;99.90;;;;;;5065518;28;20051;-69
2022/05/22 03:40:30;;;;;;;22.88;3.03;;;10.10;99.90;;;;;;5061142;28;20088;-68
2022/05/22 03:42:57;;;;;;;3.72;2.15;;;10.10;99.90;;;;;;5045891;28;20033;-69
2022/05/22 03:45:22;;;;;;;10.65;2.92;;;10.10;99.90;;;;;;5056469;28;20029;-69
2022/05/22 03:47:48;;;;;;;5.22;2.53;;;10.10;99.90;;;;;;5065326;28;20079;-69
2022/05/22 03:50:14;;;;;;;6.95;2.22;;;10.10;99.90;;;;;;5064341;28;20044;-69
2022/05/22 03:52:43;;;;;;;8.07;3.00;;;10.10;99.90;;;;;;5043119;28;20052;-70
2022/05/22 03:55:12;;;;;;;8.52;2.47;;;10.10;99.90;;;;;;5042969;28;20029;-70
2022/05/22 03:57:39;;;;;;;5.18;2.45;;;10.10;99.90;;;;;;5043123;28;20086;-71
2022/05/22 04:00:08;;;;;;;7.47;2.92;;;10.10;99.90;;;;;;5042816;28;20025;-74
2022/05/22 04:02:35;;;;;;;9.93;3.15;;;10.10;99.90;;;;;;5055033;28;20112;-72
2022/05/22 04:05:02;;;;;;;6.93;2.67;;;10.10;99.90;;;;;;5056587;28;20065;-72
2022/05/22 04:07:27;;;;;;;5.07;3.15;;;10.20;99.90;;;;;;5045133;28;20085;-71
2022/05/22 04:09:55;;;;;;;5.38;2.78;;;10.20;99.90;;;;;;5044896;28;20040;-73
2022/05/22 04:12:20;;;;;;;4.68;2.63;;;10.20;99.90;;;;;;5044963;28;20030;-72
2022/05/22 04:14:46;;;;;;;13.20;3.22;;;10.20;99.90;;;;;;5044056;28;20067;-74
2022/05/22 04:17:11;;;;;;;6.30;2.65;;;10.30;99.90;;;;;;5043419;28;20056;-73
2022/05/22 04:19:38;;;;;;;10.48;3.90;;;10.30;99.90;;;;;;5044870;28;20029;-73
2022/05/22 04:22:04;;;;;;;9.07;3.78;;;10.30;99.90;;;;;;5044993;28;20569;-72
2022/05/22 04:27:15;;;;;;;11.05;3.90;;;10.30;99.90;;;;;;5045396;28;20060;-74
2022/05/22 04:29:41;;;;;;;9.40;3.10;;;10.30;99.90;;;;;;5052419;28;20057;-73
2022/05/22 04:32:07;;;;;;;10.02;4.20;;;10.40;99.90;;;;;;5057456;28;20136;-74
2022/05/22 04:34:33;;;;;;;7.10;3.88;;;10.40;99.90;;;;;;5055608;28;20034;-74
2022/05/22 04:36:58;;;;;;;5.63;3.60;;;10.30;99.90;;;;;;5064373;28;20033;-74
2022/05/22 04:39:24;;;;;;;5.13;3.50;;;10.30;99.90;;;;;;5063653;28;20025;-73
2022/05/22 04:41:50;;;;;;;13.77;3.40;;;10.40;99.90;;;;;;5054287;28;20044;-72
2022/05/22 04:44:15;;;;;;;4.95;2.97;;;10.40;99.90;;;;;;5045479;28;20026;-73
2022/05/22 04:46:41;;;;;;;12.38;4.18;;;10.40;99.90;;;;;;5050352;28;20564;-73
2022/05/22 04:49:06;;;;;;;11.63;3.90;;;10.40;99.90;;;;;;5048392;28;20049;-72
2022/05/22 04:51:32;;;;;;;13.93;3.75;;;10.40;99.90;;;;;;5049592;28;20037;-74
2022/05/22 04:53:58;;;;;;;9.27;3.45;;;10.50;99.90;;;;;;5045382;28;20029;-76
2022/05/22 04:56:23;;;;;;;6.88;3.53;;;10.50;99.90;;;;;;5050026;28;20057;-73
2022/05/22 04:58:50;;;;;;;7.15;3.10;;;10.50;99.90;;;;;;5054622;28;20072;-73
2022/05/22 05:01:16;;;;;;;7.38;3.15;;;10.50;99.90;;;;;;5044668;28;20100;-73
2022/05/22 05:03:42;;;;;;;5.80;3.65;;;10.60;99.90;;;;;;5044212;28;20064;-72
2022/05/22 05:06:08;;;;;;;6.00;3.05;;;10.60;99.90;;;;;;5044102;28;20021;-73
2022/05/22 05:08:34;;;;;;;11.30;3.17;;;10.60;99.90;;;;;;5052363;28;20038;-71
2022/05/22 05:11:00;;;;;;;13.70;3.63;;;10.70;99.90;;;;;;5055688;28;20029;-72
2022/05/22 05:13:27;;;;;;;8.90;4.05;;;10.70;99.90;;;;;;5044393;28;20022;-73
2022/05/22 05:16:05;;;;;;;8.25;3.28;;;10.70;99.90;;;;;;5045645;28;20029;-71
2022/05/22 05:18:31;;;;;;;22.42;4.10;;;10.80;99.90;;;;;;5047918;28;20093;-74
2022/05/22 05:21:03;;;;;;;11.40;3.45;;;10.90;99.90;;;;;;5048631;28;20029;-73
2022/05/22 05:23:29;;;;;;;10.10;3.47;;;10.90;99.90;;;;;;5059577;28;20036;-73
2022/05/22 05:25:55;;;;;;;12.68;3.28;;;11.00;99.90;;;;;;5051298;28;20112;-73
2022/05/22 05:28:21;;;;;;;12.00;3.67;;;11.10;99.90;;;;;;5058114;28;20060;-72
2022/05/22 05:30:47;;;;;;;6.55;2.53;;;11.10;99.90;;;;;;5051111;28;20053;-75
2022/05/22 05:33:14;;;;;;;10.93;3.00;;;11.20;99.90;;;;;;5049247;28;20032;-74
2022/05/22 05:35:41;;;;;;;12.15;3.10;;;11.20;99.90;;;;;;5061766;28;20040;-73
2022/05/22 05:38:06;;;;;;;9.82;3.15;;;11.30;99.90;;;;;;5048178;28;20053;-72
2022/05/22 05:40:32;;;;;;;12.77;2.95;;;11.30;99.90;;;;;;5052786;28;20060;-73
2022/05/22 05:42:58;;;;;;;10.00;2.40;;;11.40;99.90;;;;;;5052220;28;20073;-74
2022/05/22 05:45:24;;;;;;;8.60;2.75;;;11.40;99.90;;;;;;5061638;28;20037;-75
2022/05/22 05:47:53;;;;;;;12.10;2.83;;;11.50;99.90;;;;;;5047779;28;20022;-72
2022/05/22 05:50:22;;;;;;;3.15;1.80;;;11.60;99.90;;;;;;5058885;28;20048;-74
2022/05/22 05:52:56;;;;;;;7.93;2.60;;;11.60;99.90;;;;;;5054177;28;20528;-72
2022/05/22 05:55:22;;;;;;;;;;;11.70;99.90;;;;;;5048403;28;20390;-73
2022/05/22 05:57:48;;;;;;;6.32;2.40;;;11.80;99.90;;;;;;5045788;28;19909;-73
2022/05/22 06:00:18;;;;;;;5.55;1.88;;;11.90;99.90;;;;;;5050947;28;20024;-73
2022/05/22 06:02:44;;;;;;;8.20;2.20;;;12.00;99.90;;;;;;5052468;28;20060;-75
2022/05/22 06:05:11;;;;;;;9.90;2.33;;;12.00;99.90;;;;;;5047555;28;20025;-73
2022/05/22 06:07:37;;;;;;;7.05;2.00;;;12.00;99.90;;;;;;5047383;28;20032;-70
2022/05/22 06:10:07;;;;;;;11.70;2.63;;;12.10;99.90;;;;;;5047664;28;20080;-74
2022/05/22 06:12:33;;;;;;;9.73;2.00;;;12.20;99.90;;;;;;5047234;28;20030;-71
2022/05/22 06:14:59;;;;;;;8.73;2.35;;;12.20;99.90;;;;;;5047030;28;20416;-70
2022/05/22 06:17:33;;;;;;;3.83;1.92;;;12.30;99.90;;;;;;5047410;28;20025;-73
2022/05/22 06:19:59;;;;;;;5.38;2.17;;;12.40;99.90;;;;;;5046830;28;20033;-71
2022/05/22 06:22:28;;;;;;;8.82;1.90;;;12.40;99.90;;;;;;5052997;28;20037;-72
2022/05/22 06:24:55;;;;;;;4.15;2.20;;;12.40;99.90;;;;;;5047285;28;20037;-73
2022/05/22 06:27:21;;;;;;;9.02;1.73;;;12.50;99.90;;;;;;5046794;28;20033;-71
2022/05/22 06:29:49;;;;;;;6.82;2.25;;;12.50;99.90;;;;;;5047040;28;20431;-73
2022/05/22 06:32:16;;;;;;;8.68;2.17;;;12.60;99.90;;;;;;5048231;28;20030;-73
2022/05/22 06:34:42;;;;;;;5.93;2.45;;;12.60;99.90;;;;;;5053824;28;20021;-72
2022/05/22 06:37:12;;;;;;;12.75;2.45;;;12.70;99.90;;;;;;5047006;28;20029;-73
2022/05/22 06:39:51;;;;;;;7.78;2.05;;;12.80;99.90;;;;;;5047046;28;20064;-73
2022/05/22 06:42:30;;;;;;;13.43;1.75;;;12.90;99.90;;;;;;5065449;28;20029;-71
2022/05/22 06:45:03;;;;;;;7.15;2.17;;;13.00;99.90;;;;;;5058115;28;20033;-72
2022/05/22 06:47:30;;;;;;;8.20;1.85;;;13.00;99.90;;;;;;5048743;28;20028;-71
2022/05/22 06:49:57;;;;;;;6.70;1.98;;;13.00;99.90;;;;;;5050417;28;20061;-74
2022/05/22 06:52:24;;;;;;;3.42;1.85;;;13.10;99.90;;;;;;5049472;28;20107;-72
2022/05/22 06:54:51;;;;;;;7.07;1.85;;;13.10;99.90;;;;;;5047064;28;20052;-72
2022/05/22 06:57:18;;;;;;;7.32;1.50;;;13.20;99.90;;;;;;5051131;28;20022;-76
2022/05/22 06:59:46;;;;;;;3.50;1.52;;;13.30;99.90;;;;;;5046942;28;20026;-73
2022/05/22 07:02:13;;;;;;;2.55;1.17;;;13.30;99.90;;;;;;5052407;28;20459;-72
2022/05/22 07:04:40;;;;;;;6.15;1.65;;;13.40;99.90;;;;;;5053445;28;20051;-73
2022/05/22 07:07:06;;;;;;;3.42;0.95;;;13.40;99.90;;;;;;5062950;28;20089;-72
2022/05/22 07:09:32;;;;;;;6.05;1.42;;;13.50;99.90;;;;;;5056553;28;20127;-73
2022/05/22 07:11:59;;;;;;;3.83;1.15;;;13.60;99.90;;;;;;5053975;28;20025;-72
2022/05/22 07:14:27;;;;;;;1.80;0.77;;;13.80;99.90;;;;;;5056074;28;20032;-70
2022/05/22 07:16:54;;;;;;;4.40;1.25;;;13.80;99.90;;;;;;5045574;28;20104;-73
2022/05/22 07:19:21;;;;;;;4.03;0.93;;;13.90;99.90;;;;;;5051801;28;20030;-74
2022/05/22 07:21:47;;;;;;;5.22;1.60;;;13.80;99.90;;;;;;5048613;28;20077;-71
2022/05/22 07:24:13;;;;;;;5.20;0.88;;;13.90;99.90;;;;;;5048129;28;20124;-73
2022/05/22 07:26:40;;;;;;;2.72;1.00;;;13.90;99.90;;;;;;5048727;28;20036;-73
2022/05/22 07:29:05;;;;;;;1.83;0.90;;;13.90;99.90;;;;;;5046394;28;20084;-71
2022/05/22 07:31:32;;;;;;;4.85;1.13;;;14.10;99.90;;;;;;5049090;28;20466;-71
2022/05/22 07:33:59;;;;;;;2.08;0.65;;;14.20;99.90;;;;;;5048865;28;20089;-72
2022/05/22 07:36:24;;;;;;;8.30;1.13;;;14.30;99.90;;;;;;5049438;28;20377;-73
2022/05/22 07:38:50;;;;;;;12.02;1.05;;;14.30;99.90;;;;;;5048159;28;20029;-72
2022/05/22 07:41:16;;;;;;;2.03;0.95;;;14.30;99.90;;;;;;5046602;28;20052;-71
2022/05/22 07:43:42;;;;;;;3.60;1.08;;;14.20;99.90;;;;;;5048840;28;20118;-72
2022/05/22 07:46:11;;;;;;;1.75;0.75;;;14.20;99.90;;;;;;5053785;28;20561;-71
2022/05/22 07:48:38;;;;;;;2.42;0.93;;;14.30;99.90;;;;;;5063112;28;20464;-73
2022/05/22 07:51:04;;;;;;;1.90;0.80;;;14.40;99.90;;;;;;5064061;28;20057;-73
2022/05/22 07:53:30;;;;;;;2.00;0.73;;;14.60;99.90;;;;;;5061651;28;20101;-72
2022/05/22 07:55:56;;;;;;;8.25;1.10;;;14.70;99.90;;;;;;5049704;28;20030;-74
2022/05/22 07:58:25;;;;;;;4.32;0.90;;;14.80;99.90;;;;;;5062723;28;20025;-71
2022/05/22 08:00:52;;;;;;;1.23;0.40;;;15.00;99.90;;;;;;5062557;28;20055;-74
2022/05/22 08:03:19;;;;;;;9.07;1.02;;;15.10;99.90;;;;;;5064741;28;20025;-73
2022/05/22 08:05:47;;;;;;;3.13;0.57;;;15.20;99.90;;;;;;5058257;28;20024;-73
2022/05/22 08:08:16;;;;;;;4.95;0.80;;;15.20;99.90;;;;;;5048115;28;20034;-73
2022/05/22 08:10:42;;;;;;;1.55;0.70;;;15.20;99.90;;;;;;5044929;28;20025;-71
2022/05/22 08:13:09;;;;;;;4.05;0.70;;;15.20;99.90;;;;;;5045118;28;20037;-73
2022/05/22 08:15:37;;;;;;;4.07;0.57;;;15.20;99.90;;;;;;5047831;28;20044;-72
2022/05/22 08:18:04;;;;;;;2.50;0.70;;;15.20;99.90;;;;;;5047715;28;20025;-72
2022/05/22 08:20:34;;;;;;;7.70;0.85;;;15.20;99.90;;;;;;5043236;28;20084;-73
2022/05/22 08:23:03;;;;;;;3.45;1.30;;;15.10;99.90;;;;;;5043041;28;20040;-71
2022/05/22 08:25:29;;;;;;;1.30;0.50;;;15.20;99.90;;;;;;5048848;28;20026;-72
2022/05/22 08:27:56;;;;;;;1.63;0.77;;;15.00;99.90;;;;;;5051215;28;20037;-72
2022/05/22 08:30:26;;;;;;;1.45;0.77;;;15.10;99.90;;;;;;5043852;28;20063;-72
2022/05/22 08:32:52;;;;;;;5.28;1.17;;;15.20;99.90;;;;;;5044701;28;20029;-72
2022/05/22 08:35:24;;;;;;;4.13;0.82;;;15.40;99.90;;;;;;5044977;28;20033;-72
2022/05/22 08:37:51;;;;;;;0.47;0.40;;;15.60;99.90;;;;;;5044613;28;20029;-73
2022/05/22 08:40:20;;;;;;;6.80;1.10;;;15.70;99.90;;;;;;5043198;28;20044;-73
2022/05/22 08:42:50;;;;;;;6.43;1.00;;;15.70;99.90;;;;;;5045208;28;20037;-70
2022/05/22 08:45:21;;;;;;;4.88;1.02;;;15.60;99.90;;;;;;5044325;28;20098;-73
2022/05/22 08:47:52;;;;;;;5.07;1.02;;;15.60;99.90;;;;;;5051079;28;20033;-73
2022/05/22 08:50:19;;;;;;;1.17;0.60;;;15.60;99.90;;;;;;5055189;28;20056;-73
2022/05/22 08:53:14;;;;;;;3.03;0.68;;;15.50;99.90;;;;;;5055043;28;20013;-72
2022/05/22 08:58:59;;;;;;;3.05;0.60;;;15.70;99.90;;;;;;5055371;28;20067;-72
2022/05/22 09:01:58;;;;;;;2.95;0.52;;;15.90;99.90;;;;;;5057185;28;20089;-73
2022/05/22 09:04:38;;;;;;;2.13;0.55;;;16.20;99.90;;;;;;5048893;28;20432;-72
2022/05/22 09:07:14;;;;;;;1.40;0.65;;;16.50;99.90;;;;;;5053322;28;20083;-71
2022/05/22 09:09:42;;;;;;;1.20;0.68;;;16.80;99.90;;;;;;5068270;28;20040;-71
2022/05/22 09:12:48;;;;;;;3.35;0.55;;;17.10;99.90;;;;;;5068360;28;20489;-71
2022/05/22 09:15:13;;;;;;;;;;;17.00;99.90;;;;;;5068628;28;20500;-73
2022/05/22 09:18:20;;;;;;;1.05;0.57;;;16.80;99.90;;;;;;5068572;28;19911;-72
2022/05/22 09:21:12;;;;;;;2.05;0.55;;;16.60;99.90;;;;;;5027382;28;20036;-71
2022/05/22 09:23:58;;;;;;;5.32;1.35;;;16.50;99.90;;;;;;5054535;28;20064;-72
2022/05/22 09:26:36;;;;;;;2.00;0.65;;;16.40;99.90;;;;;;5052355;28;20031;-71
2022/05/22 09:29:29;;;;;;;2.33;1.08;;;16.60;99.90;;;;;;5059709;28;20062;-72
2022/05/22 09:32:25;;;;;;;2.78;0.45;;;16.80;99.90;;;;;;5047933;28;20033;-73
2022/05/22 09:35:29;;;;;;;3.90;0.85;;;17.10;99.90;;;;;;5059941;28;20029;-74
2022/05/22 09:38:19;;;;;;;1.13;0.77;;;17.30;99.90;;;;;;5063958;28;20389;-73
2022/05/22 09:43:45;;;;;;;0.70;0.43;;;17.50;99.90;;;;;;4500928;28;20051;-70
2022/05/22 09:46:14;;;;;;;1.20;0.70;;;17.70;99.90;;;;;;5065208;28;20128;-73
2022/05/22 09:48:52;;;;;;;1.58;0.88;;;17.90;99.90;;;;;;5063523;28;20041;-73
2022/05/22 09:51:36;;;;;;;3.35;0.40;;;17.90;99.90;;;;;;5065426;28;20033;-74
2022/05/22 09:54:53;;;;;;;2.95;0.50;;;18.00;99.90;;;;;;5064886;28;20021;-71
2022/05/22 09:57:34;;;;;;;2.88;1.15;;;17.90;99.90;;;;;;5065348;28;20498;-71
2022/05/22 10:00:05;;;;;;;3.33;0.90;;;17.90;99.90;;;;;;5064425;28;20021;-70
2022/05/22 10:02:39;;;;;;;2.45;0.47;;;17.90;99.90;;;;;;5064240;28;20124;-70
2022/05/22 10:05:21;;;;;;;1.60;0.73;;;18.00;99.90;;;;;;5065900;28;20025;-73
2022/05/22 10:07:59;;;;;;;2.83;0.70;;;18.00;99.90;;;;;;5065330;28;20076;-72
2022/05/22 10:10:39;;;;;;;3.70;0.85;;;18.10;99.90;;;;;;5064549;28;20087;-71
2022/05/22 10:13:40;;;;;;;1.95;0.80;;;18.30;99.90;;;;;;5065015;28;20429;-70
2022/05/22 10:16:22;;;;;;;5.95;0.88;;;18.40;99.90;;;;;;5047039;28;20036;-72
2022/05/22 10:19:15;;;;;;;7.05;0.88;;;18.20;99.90;;;;;;5047011;28;20043;-73
2022/05/22 10:22:13;;;;;;;0.22;0.17;;;18.10;99.90;;;;;;5063434;28;20031;-72
2022/05/22 10:25:06;;;;;;;2.70;0.98;;;18.10;99.90;;;;;;5050936;28;20041;-71
2022/05/22 10:27:56;;;;;;;2.72;1.00;;;18.30;99.90;;;;;;5064661;28;20064;-72
2022/05/22 10:30:54;;;;;;;1.65;0.43;;;18.40;99.90;;;;;;5064016;28;20037;-71
2022/05/22 10:33:35;;;;;;;8.00;0.63;;;18.40;99.90;;;;;;5047718;28;20097;-70
2022/05/22 10:36:11;;;;;;;1.05;0.57;;;18.30;99.90;;;;;;5063522;28;20021;-71
2022/05/22 10:38:48;;;;;;;0.68;0.40;;;18.40;99.90;;;;;;5064773;28;20054;-72
2022/05/22 10:44:15;;;;;;;2.10;0.55;;;18.40;99.90;;;;;;5063631;28;20036;-72
2022/05/22 10:46:46;;;;;;;3.05;1.10;;;18.70;99.90;;;;;;5044641;28;20439;-71
2022/05/22 10:49:12;;;;;;;8.80;0.90;;;18.80;99.90;;;;;;5062638;28;20563;-71
2022/05/22 10:51:38;;;;;;;2.47;0.70;;;18.90;99.90;;;;;;5064638;28;20025;-72
2022/05/22 10:54:03;;;;;;;0.93;0.63;;;19.00;99.90;;;;;;5064164;28;20960;-72
2022/05/22 10:56:32;;;;;;;5.57;0.82;;;19.10;99.90;;;;;;5064752;28;20025;-72
2022/05/22 10:59:01;;;;;;;0.95;0.63;;;19.10;99.90;;;;;;5063523;28;20035;-71
2022/05/22 11:01:36;;;;;;;1.20;0.60;;;19.20;99.90;;;;;;5063980;28;20032;-73
2022/05/22 11:04:02;;;;;;;0.77;0.43;;;19.50;99.90;;;;;;5063874;28;20050;-71
2022/05/22 11:06:28;;;;;;;2.35;0.77;;;19.70;99.90;;;;;;5064161;28;20029;-73
2022/05/22 11:08:55;;;;;;;5.60;0.85;;;20.00;99.90;;;;;;5064122;28;20055;-71
2022/05/22 11:11:27;;;;;;;3.83;0.73;;;19.90;99.90;;;;;;5063842;28;20033;-70
2022/05/22 11:14:03;;;;;;;0.88;0.50;;;19.80;99.90;;;;;;5061820;28;20036;-71
2022/05/22 11:16:29;;;;;;;1.05;0.52;;;19.80;99.90;;;;;;5063430;28;20029;-72
2022/05/22 11:19:10;;;;;;;4.03;0.70;;;19.90;99.90;;;;;;5063537;28;20439;-71
2022/05/22 11:22:14;;;;;;;2.75;0.77;;;20.00;99.90;;;;;;5063697;28;20037;-73
2022/05/22 11:25:02;;;;;;;2.25;0.70;;;20.30;99.90;;;;;;5045834;28;20025;-71
2022/05/22 11:28:16;;;;;;;2.30;0.60;;;20.70;99.90;;;;;;5062254;28;20090;-72
2022/05/22 11:30:56;;;;;;;4.70;0.50;;;20.60;99.90;;;;;;4976136;28;20126;-73
2022/05/22 11:33:40;;;;;;;1.60;0.68;;;20.50;99.90;;;;;;5045404;28;20029;-72
2022/05/22 11:36:29;;;;;;;2.63;0.82;;;20.30;99.90;;;;;;5062531;28;20028;-73
2022/05/22 11:39:33;;;;;;;0.77;0.50;;;20.30;99.90;;;;;;5063657;28;20025;-73
2022/05/22 11:42:26;;;;;;;1.55;0.65;;;20.50;99.90;;;;;;5061908;28;20021;-73
2022/05/22 11:45:27;;;;;;;11.07;0.88;;;20.80;99.90;;;;;;5063657;28;20111;-73
2022/05/22 11:48:09;;;;;;;1.10;0.50;;;21.10;99.90;;;;;;5063283;28;20032;-72
2022/05/22 11:51:25;;;;;;;2.17;0.30;;;21.30;99.90;;;;;;5045849;28;20096;-73
2022/05/22 11:54:19;;;;;;;2.17;0.73;;;21.20;99.90;;;;;;5013768;28;20044;-72
2022/05/22 11:57:06;;;;;;;1.38;0.73;;;20.80;99.90;;;;;;5062155;28;20031;-69
2022/05/22 12:00:19;;;;;;;1.48;0.57;;;20.40;99.90;;;;;;5060457;28;20029;-72
2022/05/22 12:02:55;;;;;;;1.00;0.60;;;20.00;99.90;;;;;;5036605;28;20052;-71
2022/05/22 12:05:42;;;;;;;0.93;0.52;;;19.90;99.90;;;;;;5062700;28;20028;-70
2022/05/22 12:08:27;;;;;;;1.83;0.60;;;20.10;99.90;;;;;;5061888;28;20021;-73
2022/05/22 12:11:24;;;;;;;1.38;0.52;;;20.30;99.90;;;;;;5061396;28;20036;-72
2022/05/22 12:14:16;;;;;;;5.45;0.80;;;20.80;99.90;;;;;;5059791;28;20516;-71
2022/05/22 12:17:09;;;;;;;0.88;0.68;;;20.90;99.90;;;;;;5061885;28;20043;-72
2022/05/22 12:19:45;;;;;;;0.75;0.32;;;20.70;99.90;;;;;;5059216;28;20029;-71
2022/05/22 12:25:21;;;;;;;0.57;0.40;;;20.70;99.90;;;;;;5059602;28;20122;-71
2022/05/22 12:27:50;;;;;;;3.25;0.50;;;21.00;99.90;;;;;;5059906;28;20126;-72
2022/05/22 12:30:25;;;;;;;1.63;0.43;;;21.20;99.90;;;;;;5060831;28;20041;-72
2022/05/22 12:33:17;;;;;;;1.35;0.50;;;21.70;99.90;;;;;;5061242;28;20021;-70
2022/05/22 12:35:43;;;;;;;1.55;0.60;;;22.00;99.90;;;;;;5060692;28;20489;-72
2022/05/22 12:38:12;;;;;;;3.03;0.55;;;21.80;99.90;;;;;;5061216;28;20052;-72
2022/05/22 12:41:10;;;;;;;0.47;0.28;;;21.70;99.90;;;;;;5042582;28;20055;-71
2022/05/22 12:43:40;;;;;;;2.10;0.63;;;21.50;99.90;;;;;;5057898;28;20138;-72
2022/05/22 12:46:12;;;;;;;3.45;0.60;;;21.30;99.90;;;;;;5062352;28;20021;-72
2022/05/22 12:48:43;;;;;;;3.75;0.90;;;21.10;99.90;;;;;;5061058;28;20017;-73
2022/05/22 12:51:19;;;;;;;2.92;0.60;;;20.90;99.90;;;;;;5062509;28;20057;-72
2022/05/22 12:53:51;;;;;;;2.10;0.90;;;20.70;99.90;;;;;;5061867;28;20112;-72
2022/05/22 12:56:23;;;;;;;2.35;0.50;;;20.50;99.90;;;;;;5062104;28;20229;-72
2022/05/22 12:59:03;;;;;;;1.08;0.60;;;20.40;99.90;;;;;;5062187;28;20039;-72
2022/05/22 13:01:37;;;;;;;2.22;1.05;;;20.30;99.90;;;;;;5062486;28;20164;-72
2022/05/22 13:04:23;;;;;;;2.20;0.70;;;20.30;99.90;;;;;;5060542;28;20025;-72
2022/05/22 13:07:09;;;;;;;0.32;0.22;;;20.30;99.90;;;;;;5062330;28;20021;-71
2022/05/22 13:09:45;;;;;;;3.97;0.75;;;20.30;99.90;;;;;;5061921;28;20064;-73
2022/05/22 13:12:13;;;;;;;1.17;0.55;;;20.30;99.90;;;;;;5062567;28;20088;-72
2022/05/22 13:14:50;;;;;;;1.13;0.70;;;20.30;99.90;;;;;;5058622;28;20401;-73
2022/05/22 13:17:34;;;;;;;1.92;0.63;;;20.20;99.90;;;;;;5060271;28;20546;-74
2022/05/22 13:20:02;;;;;;;1.05;0.50;;;20.30;99.90;;;;;;5060836;28;20071;-72
2022/05/22 13:22:38;;;;;;;2.50;0.68;;;20.40;99.90;;;;;;5060513;28;20041;-71
2022/05/22 13:25:25;;;;;;;2.08;0.43;;;20.80;99.90;;;;;;5061798;28;20025;-72
2022/05/22 13:27:51;;;;;;;4.57;0.70;;;21.40;99.90;;;;;;5062217;28;20080;-71
2022/05/22 13:30:28;;;;;;;0.80;0.50;;;22.20;99.90;;;;;;5062094;28;20080;-71
2022/05/22 13:32:59;;;;;;;2.53;1.20;;;22.80;99.90;;;;;;5062377;28;20029;-70
2022/05/22 13:35:42;;;;;;;0.70;0.60;;;23.20;99.90;;;;;;5061961;28;20064;-73